Time;durP1;ratioP1;P1;durP2;ratioP2;P2;SDS_P1;SDS_P2;PMS_P1;PMS_P2;Temp;Humidity;BMP_temperature;BMP_pressure;BME280_temperature;BME280_humidity;BME280_pressure;Samples;Min_cycle;Max_cycle;Signal;HPM_P1;HPM_P2
2022/11/22 00:00:19;;;;;;;1.88;1.55;;;5.80;99.90;;;;;;4990537;28;20514;-66
2022/11/22 00:02:44;;;;;;;0.35;0.35;;;5.70;99.90;;;;;;4990686;28;20073;-66
2022/11/22 00:05:11;;;;;;;3.20;1.85;;;5.70;99.90;;;;;;4998023;28;20041;-66
2022/11/22 00:07:36;;;;;;;3.13;2.30;;;5.80;99.90;;;;;;5014258;28;20496;-66
2022/11/22 00:10:04;;;;;;;0.82;0.82;;;5.70;99.90;;;;;;5002905;28;20612;-65
2022/11/22 00:12:30;;;;;;;2.25;1.90;;;5.70;99.90;;;;;;5008832;28;20041;-65
2022/11/22 00:14:55;;;;;;;3.30;0.95;;;5.70;99.90;;;;;;4989869;28;20041;-66
2022/11/22 00:17:21;;;;;;;0.10;0.10;;;5.70;99.90;;;;;;4991850;28;20042;-66
2022/11/22 00:19:46;;;;;;;1.90;1.75;;;5.70;99.90;;;;;;5002980;28;20092;-66
2022/11/22 00:22:12;;;;;;;0.20;0.20;;;5.70;99.90;;;;;;5010191;28;20077;-66
2022/11/22 00:24:37;;;;;;;0.68;0.68;;;5.70;99.90;;;;;;4998159;28;20046;-66
2022/11/22 00:27:03;;;;;;;0.28;0.28;;;5.70;99.90;;;;;;5003321;28;20157;-66
2022/11/22 00:29:28;;;;;;;0.77;0.77;;;5.70;99.90;;;;;;5001971;28;20050;-66
2022/11/22 00:31:54;;;;;;;0.20;0.20;;;5.70;99.90;;;;;;4972375;28;20046;-66
2022/11/22 00:34:19;;;;;;;1.15;0.52;;;5.70;99.90;;;;;;4990627;28;20050;-66
2022/11/22 00:36:45;;;;;;;0.50;0.50;;;5.80;99.90;;;;;;4988935;28;20525;-65
2022/11/22 00:39:10;;;;;;;0.30;0.30;;;5.70;99.90;;;;;;4990010;28;20517;-66
2022/11/22 00:41:36;;;;;;;0.10;0.10;;;5.70;99.90;;;;;;5010865;28;20042;-65
2022/11/22 00:44:02;;;;;;;0.65;0.65;;;5.70;99.90;;;;;;5002019;28;20445;-65
2022/11/22 00:46:27;;;;;;;0.90;0.90;;;5.70;99.90;;;;;;4993080;28;20047;-66
2022/11/22 00:48:53;;;;;;;0.43;0.43;;;5.70;99.90;;;;;;4993665;28;20052;-66
2022/11/22 00:51:18;;;;;;;1.58;1.48;;;5.70;99.90;;;;;;4981862;28;20141;-66
2022/11/22 00:53:44;;;;;;;0.10;0.10;;;5.70;99.90;;;;;;4991941;28;20490;-66
2022/11/22 00:56:09;;;;;;;0.40;0.40;;;5.70;99.90;;;;;;4994075;28;20046;-66
2022/11/22 00:58:35;;;;;;;5.82;1.55;;;5.80;99.90;;;;;;5009185;28;20049;-66
2022/11/22 01:01:00;;;;;;;0.10;0.10;;;5.70;99.90;;;;;;4989157;28;20043;-66
2022/11/22 01:03:26;;;;;;;0.32;0.32;;;5.70;99.90;;;;;;4988046;28;20061;-66
2022/11/22 01:05:52;;;;;;;0.10;0.10;;;5.70;99.90;;;;;;4999896;28;20147;-66
2022/11/22 01:08:17;;;;;;;1.02;0.85;;;5.70;99.90;;;;;;4999003;28;20104;-66
2022/11/22 01:10:43;;;;;;;0.32;0.30;;;5.70;99.90;;;;;;4995459;28;20065;-66
2022/11/22 01:13:10;;;;;;;1.40;1.38;;;5.70;99.90;;;;;;4993806;28;20074;-66
2022/11/22 01:15:36;;;;;;;0.10;0.10;;;5.70;99.90;;;;;;4992647;28;20054;-66
2022/11/22 01:18:01;;;;;;;0.20;0.20;;;5.70;99.90;;;;;;5008660;28;20034;-66
2022/11/22 01:20:27;;;;;;;0.35;0.35;;;5.70;99.90;;;;;;5003523;28;20486;-66
2022/11/22 01:22:52;;;;;;;0.22;0.22;;;5.60;99.90;;;;;;4992354;28;20038;-66
2022/11/22 01:25:18;;;;;;;0.10;0.10;;;5.70;99.90;;;;;;4992556;28;20133;-66
2022/11/22 01:27:44;;;;;;;0.10;0.10;;;5.70;99.90;;;;;;5008690;28;20089;-66
2022/11/22 01:30:10;;;;;;;0.38;0.38;;;5.80;99.90;;;;;;5031883;28;20480;-66
2022/11/22 01:32:35;;;;;;;0.40;0.40;;;5.70;99.90;;;;;;5024630;28;20030;-66
2022/11/22 01:35:01;;;;;;;0.20;0.20;;;5.70;99.90;;;;;;4992506;28;20133;-66
2022/11/22 01:37:26;;;;;;;0.63;0.63;;;5.70;99.90;;;;;;5008663;28;20049;-66
2022/11/22 01:39:52;;;;;;;0.20;0.20;;;5.70;99.90;;;;;;5010491;28;20045;-66
2022/11/22 01:42:17;;;;;;;0.25;0.25;;;5.70;99.90;;;;;;5011574;28;20630;-66
2022/11/22 01:44:43;;;;;;;0.28;0.28;;;5.70;99.90;;;;;;4997723;28;20506;-66
2022/11/22 01:47:19;;;;;;;1.58;1.48;;;5.70;99.90;;;;;;4993684;28;20038;-66
2022/11/22 01:49:52;;;;;;;0.20;0.20;;;5.70;99.90;;;;;;4974109;28;20085;-66
2022/11/22 01:52:23;;;;;;;0.30;0.30;;;5.60;99.90;;;;;;5007799;28;20073;-66
2022/11/22 01:54:57;;;;;;;0.63;0.63;;;5.60;99.90;;;;;;4981218;28;20046;-66
2022/11/22 01:57:27;;;;;;;6.03;1.23;;;5.60;99.90;;;;;;4987939;28;20049;-66
2022/11/22 02:00:08;;;;;;;0.10;0.10;;;5.60;99.90;;;;;;5011694;28;20072;-66
2022/11/22 02:02:35;;;;;;;2.17;1.08;;;5.60;99.90;;;;;;4991361;28;20062;-66
2022/11/22 02:05:06;;;;;;;0.10;0.10;;;5.60;99.90;;;;;;4975636;28;20081;-66
2022/11/22 02:07:58;;;;;;;0.60;0.60;;;5.60;99.90;;;;;;5007370;28;20053;-66
2022/11/22 02:10:26;;;;;;;1.48;1.38;;;5.70;99.90;;;;;;4979554;28;20088;-66
2022/11/22 02:12:54;;;;;;;0.10;0.10;;;5.60;99.90;;;;;;4991327;28;20500;-66
2022/11/22 02:15:20;;;;;;;3.60;1.67;;;5.70;99.90;;;;;;5008381;28;20520;-66
2022/11/22 02:17:45;;;;;;;0.30;0.30;;;5.70;99.90;;;;;;4999200;28;20042;-66
2022/11/22 02:20:11;;;;;;;0.10;0.10;;;5.70;99.90;;;;;;5005326;28;20418;-66
2022/11/22 02:23:00;;;;;;;5.50;2.13;;;5.60;99.90;;;;;;4978497;28;20069;-66
2022/11/22 02:25:41;;;;;;;0.10;0.10;;;5.70;99.90;;;;;;4998766;28;20058;-66
2022/11/22 02:28:12;;;;;;;0.30;0.30;;;5.60;99.90;;;;;;5009024;28;20034;-67
2022/11/22 02:30:39;;;;;;;2.47;1.27;;;5.60;99.90;;;;;;5016804;28;20398;-66
2022/11/22 02:33:05;;;;;;;0.15;0.15;;;5.60;99.90;;;;;;5017680;28;20499;-66
2022/11/22 02:35:31;;;;;;;0.20;0.20;;;5.80;99.90;;;;;;5011407;28;20045;-66
2022/11/22 02:38:01;;;;;;;0.10;0.10;;;5.70;99.90;;;;;;5006121;28;20125;-67
2022/11/22 02:40:31;;;;;;;0.40;0.40;;;5.70;99.90;;;;;;4977937;28;20133;-67
2022/11/22 02:43:17;;;;;;;0.20;0.20;;;5.70;99.90;;;;;;4991270;28;20435;-66
2022/11/22 02:45:43;;;;;;;0.10;0.10;;;5.80;99.90;;;;;;4990886;28;20042;-66
2022/11/22 02:48:12;;;;;;;0.20;0.20;;;5.80;99.90;;;;;;4990872;28;20038;-66
2022/11/22 02:50:38;;;;;;;0.50;0.50;;;5.70;99.90;;;;;;5023375;28;20045;-67
2022/11/22 02:53:05;;;;;;;2.08;1.30;;;5.70;99.90;;;;;;5009242;28;20042;-66
2022/11/22 02:55:31;;;;;;;0.85;0.85;;;5.80;99.90;;;;;;4996332;28;20065;-67
2022/11/22 02:57:56;;;;;;;1.35;1.10;;;5.70;99.90;;;;;;4990602;28;20038;-66
2022/11/22 03:00:22;;;;;;;0.10;0.10;;;5.80;99.90;;;;;;4973224;28;20061;-67
2022/11/22 03:02:48;;;;;;;1.85;1.25;;;5.80;99.90;;;;;;4979146;28;20136;-66
2022/11/22 03:05:14;;;;;;;0.40;0.40;;;5.70;99.90;;;;;;5009904;28;20088;-66
2022/11/22 03:07:39;;;;;;;0.30;0.30;;;5.80;99.90;;;;;;5009630;28;20038;-66
2022/11/22 03:10:05;;;;;;;0.10;0.10;;;5.80;99.90;;;;;;5010538;28;20080;-66
2022/11/22 03:12:31;;;;;;;0.47;0.47;;;5.80;99.90;;;;;;5004555;28;20634;-66
2022/11/22 03:14:57;;;;;;;0.68;0.68;;;5.80;99.90;;;;;;4996788;28;20087;-66
2022/11/22 03:17:22;;;;;;;0.80;0.80;;;5.90;99.90;;;;;;4991353;28;20076;-66
2022/11/22 03:19:48;;;;;;;0.30;0.30;;;5.80;99.90;;;;;;5001495;28;20038;-67
2022/11/22 03:22:14;;;;;;;0.35;0.35;;;5.90;99.90;;;;;;4990471;28;20053;-66
2022/11/22 03:24:39;;;;;;;4.03;1.25;;;5.80;99.90;;;;;;4980750;28;20038;-66
2022/11/22 03:27:05;;;;;;;0.75;0.75;;;5.90;99.90;;;;;;4995767;28;20516;-66
2022/11/22 03:29:31;;;;;;;0.15;0.15;;;5.80;99.90;;;;;;4990358;28;20093;-67
2022/11/22 03:31:56;;;;;;;0.75;0.75;;;5.90;99.90;;;;;;4993015;28;20039;-67
2022/11/22 03:34:22;;;;;;;0.17;0.17;;;5.80;99.90;;;;;;5010328;28;20097;-66
2022/11/22 03:36:47;;;;;;;0.10;0.10;;;5.80;99.90;;;;;;4989791;28;20050;-66
2022/11/22 03:39:13;;;;;;;0.30;0.30;;;5.80;99.90;;;;;;5010514;28;20057;-67
2022/11/22 03:41:38;;;;;;;0.65;0.63;;;5.80;99.90;;;;;;5010577;28;20030;-66
2022/11/22 03:44:04;;;;;;;0.90;0.28;;;5.80;99.90;;;;;;4986833;28;20109;-66
2022/11/22 03:46:30;;;;;;;1.10;0.70;;;5.80;99.90;;;;;;5001460;28;20061;-66
2022/11/22 03:48:55;;;;;;;2.30;1.30;;;5.80;99.90;;;;;;5011016;28;20041;-66
2022/11/22 03:51:22;;;;;;;0.10;0.10;;;5.80;99.90;;;;;;5016775;28;20054;-66
2022/11/22 03:53:47;;;;;;;0.10;0.10;;;5.80;99.90;;;;;;4998130;28;20569;-66
2022/11/22 03:56:13;;;;;;;0.50;0.25;;;5.80;99.90;;;;;;4990445;28;20133;-67
2022/11/22 03:58:38;;;;;;;2.83;1.55;;;5.70;99.90;;;;;;4989490;28;20053;-66
2022/11/22 04:01:04;;;;;;;0.20;0.20;;;5.70;99.90;;;;;;4989424;28;20046;-66
2022/11/22 04:03:30;;;;;;;0.20;0.20;;;5.70;99.90;;;;;;4997689;28;20088;-67
2022/11/22 04:05:55;;;;;;;0.60;0.60;;;5.70;99.90;;;;;;4997990;28;20390;-66
2022/11/22 04:08:21;;;;;;;0.10;0.10;;;5.80;99.90;;;;;;5003134;28;20058;-66
2022/11/22 04:10:48;;;;;;;0.52;0.52;;;5.80;99.90;;;;;;4989790;28;20070;-66
2022/11/22 04:13:14;;;;;;;0.55;0.55;;;5.70;99.90;;;;;;4991041;28;20065;-66
2022/11/22 04:15:39;;;;;;;0.28;0.28;;;5.70;99.90;;;;;;5006218;28;20037;-66
2022/11/22 04:18:08;;;;;;;0.10;0.10;;;5.70;99.90;;;;;;5010302;28;20576;-66
2022/11/22 04:23:20;;;;;;;0.25;0.25;;;5.70;99.90;;;;;;5012815;28;20049;-66
2022/11/22 04:25:55;;;;;;;0.30;0.30;;;5.70;99.90;;;;;;5012522;28;20176;-66
2022/11/22 04:28:24;;;;;;;0.10;0.10;;;5.70;99.90;;;;;;5014079;28;20073;-66
2022/11/22 04:33:35;;;;;;;0.10;0.10;;;5.80;99.90;;;;;;4995621;28;20133;-66
2022/11/22 04:36:01;;;;;;;0.88;0.85;;;5.80;99.90;;;;;;4993816;28;20050;-66
2022/11/22 04:38:27;;;;;;;0.45;0.45;;;5.90;99.90;;;;;;4992625;28;20061;-67
2022/11/22 04:40:52;;;;;;;0.55;0.52;;;5.80;99.90;;;;;;4990762;28;20042;-66
2022/11/22 04:46:12;;;;;;;0.43;0.43;;;5.80;99.90;;;;;;4996352;28;20101;-66
2022/11/22 04:48:38;;;;;;;0.10;0.10;;;5.80;99.90;;;;;;4980651;28;20041;-66
2022/11/22 04:53:49;;;;;;;0.10;0.10;;;5.80;99.90;;;;;;4992419;28;20046;-66
2022/11/22 04:56:15;;;;;;;0.50;0.50;;;5.80;99.90;;;;;;4993358;28;20054;-66
2022/11/22 04:58:40;;;;;;;0.20;0.20;;;5.80;99.90;;;;;;4993426;28;20080;-66
2022/11/22 05:01:06;;;;;;;0.88;0.88;;;5.80;99.90;;;;;;5003034;28;20057;-66
2022/11/22 05:03:32;;;;;;;0.10;0.10;;;5.90;99.90;;;;;;4992929;28;20129;-66
2022/11/22 05:06:03;;;;;;;0.10;0.10;;;5.80;99.90;;;;;;4995158;28;20050;-66
2022/11/22 05:08:29;;;;;;;0.10;0.10;;;5.80;99.90;;;;;;5012551;28;20042;-67
2022/11/22 05:10:58;;;;;;;6.45;1.23;;;5.80;99.90;;;;;;5011238;28;20091;-67
2022/11/22 05:13:38;;;;;;;0.20;0.20;;;5.80;99.90;;;;;;4998106;28;20046;-67
2022/11/22 05:16:05;;;;;;;1.27;1.27;;;5.90;99.90;;;;;;5010461;28;20058;-66
2022/11/22 05:18:31;;;;;;;0.75;0.75;;;5.90;99.90;;;;;;5008030;28;20092;-66
2022/11/22 05:20:58;;;;;;;0.10;0.10;;;5.90;99.90;;;;;;4996093;28;20050;-66
2022/11/22 05:26:10;;;;;;;0.20;0.20;;;6.00;99.90;;;;;;5005051;28;20046;-66
2022/11/22 05:28:37;;;;;;;0.40;0.40;;;6.00;99.90;;;;;;5014379;28;20050;-66
2022/11/22 05:31:15;;;;;;;0.85;0.85;;;6.00;99.90;;;;;;5001366;28;20088;-66
2022/11/22 05:33:42;;;;;;;0.20;0.20;;;6.00;99.90;;;;;;4968823;28;20055;-66
2022/11/22 05:36:08;;;;;;;0.10;0.10;;;6.00;99.90;;;;;;4954055;28;20047;-66
2022/11/22 05:38:36;;;;;;;0.65;0.45;;;6.00;99.90;;;;;;4952916;29;20078;-66
2022/11/22 05:41:06;;;;;;;0.10;0.10;;;6.10;99.90;;;;;;4962590;28;20043;-66
2022/11/22 05:43:32;;;;;;;0.35;0.35;;;6.10;99.90;;;;;;4971551;28;20058;-66
2022/11/22 05:46:10;;;;;;;0.30;0.30;;;6.10;99.90;;;;;;4961601;28;20050;-66
2022/11/22 05:48:37;;;;;;;0.75;0.75;;;6.10;99.90;;;;;;4966599;28;20511;-66
2022/11/22 05:51:08;;;;;;;0.30;0.30;;;6.20;99.90;;;;;;4953779;28;20110;-66
2022/11/22 05:53:35;;;;;;;0.10;0.10;;;6.20;99.90;;;;;;4953102;28;20047;-66
2022/11/22 05:56:08;;;;;;;1.27;0.55;;;6.20;99.90;;;;;;4953207;28;20435;-66
2022/11/22 05:58:34;;;;;;;0.20;0.20;;;6.20;99.90;;;;;;4961886;28;20043;-66
2022/11/22 06:01:12;;;;;;;0.10;0.10;;;6.20;99.90;;;;;;4960651;28;20490;-66
2022/11/22 06:03:38;;;;;;;0.20;0.20;;;6.20;99.90;;;;;;4959854;28;20665;-66
2022/11/22 06:06:05;;;;;;;0.95;0.90;;;6.20;99.90;;;;;;4975757;28;20399;-66
2022/11/22 06:08:33;;;;;;;1.38;1.27;;;6.10;99.90;;;;;;4973400;28;20044;-66
2022/11/22 06:11:06;;;;;;;0.73;0.73;;;6.00;99.90;;;;;;4971039;28;20047;-66
2022/11/22 06:13:36;;;;;;;0.32;0.32;;;6.10;99.90;;;;;;4956620;28;20395;-67
2022/11/22 06:16:02;;;;;;;0.20;0.20;;;6.10;99.90;;;;;;4970309;28;20047;-66
2022/11/22 06:18:28;;;;;;;0.20;0.20;;;6.00;99.90;;;;;;4966816;28;20177;-66
2022/11/22 06:21:02;;;;;;;0.57;0.57;;;5.90;99.90;;;;;;4974891;28;20550;-66
2022/11/22 06:23:29;;;;;;;1.88;0.75;;;6.00;99.90;;;;;;4970220;28;20518;-66
2022/11/22 06:26:06;;;;;;;0.22;0.22;;;6.00;99.90;;;;;;4971049;28;20062;-66
2022/11/22 06:28:33;;;;;;;0.10;0.10;;;6.00;99.90;;;;;;4972315;28;20503;-66
2022/11/22 06:31:07;;;;;;;1.02;1.02;;;5.90;99.90;;;;;;4958204;28;20890;-66
2022/11/22 06:33:33;;;;;;;0.10;0.10;;;5.80;99.90;;;;;;4965240;28;20551;-66
2022/11/22 06:36:06;;;;;;;1.10;0.75;;;5.80;99.90;;;;;;5011379;28;20050;-66
2022/11/22 06:38:33;;;;;;;0.10;0.10;;;5.80;99.90;;;;;;5002541;28;20088;-66
2022/11/22 06:41:09;;;;;;;1.35;0.80;;;5.80;99.90;;;;;;4973889;28;20042;-66
2022/11/22 06:43:36;;;;;;;0.13;0.13;;;5.70;99.90;;;;;;5002636;28;20050;-66
2022/11/22 06:46:03;;;;;;;0.10;0.10;;;5.60;99.90;;;;;;4981105;28;20125;-66
2022/11/22 06:48:30;;;;;;;8.45;1.75;;;5.60;99.90;;;;;;5000448;28;20076;-66
2022/11/22 06:51:00;;;;;;;0.20;0.20;;;5.60;99.90;;;;;;4997247;28;20046;-66
2022/11/22 06:53:30;;;;;;;0.10;0.10;;;5.70;99.90;;;;;;4983693;28;20046;-66
2022/11/22 06:56:07;;;;;;;0.20;0.20;;;5.70;99.90;;;;;;4991351;28;20050;-66
2022/11/22 06:58:33;;;;;;;0.15;0.15;;;5.70;99.90;;;;;;5001731;28;20422;-66
2022/11/22 07:01:03;;;;;;;0.43;0.43;;;5.70;99.90;;;;;;5007759;28;20038;-66
2022/11/22 07:03:29;;;;;;;0.30;0.30;;;5.70;99.90;;;;;;4990712;28;20434;-66
2022/11/22 07:05:55;;;;;;;0.10;0.10;;;5.70;99.90;;;;;;4992205;28;20100;-66
2022/11/22 07:08:21;;;;;;;0.10;0.10;;;5.60;99.90;;;;;;5010881;28;20133;-66
2022/11/22 07:10:47;;;;;;;0.85;0.85;;;5.70;99.90;;;;;;4997883;28;20449;-66
2022/11/22 07:13:12;;;;;;;0.10;0.10;;;5.70;99.90;;;;;;5017268;28;20046;-66
2022/11/22 07:15:38;;;;;;;1.85;1.50;;;5.60;99.90;;;;;;5010024;28;20374;-66
2022/11/22 07:18:04;;;;;;;0.43;0.43;;;5.50;99.90;;;;;;4994915;28;20042;-67
2022/11/22 07:20:29;;;;;;;0.10;0.10;;;5.50;99.90;;;;;;4990929;28;20105;-66
2022/11/22 07:22:55;;;;;;;0.30;0.30;;;5.60;99.90;;;;;;4994004;28;20057;-66
2022/11/22 07:25:20;;;;;;;0.13;0.13;;;5.50;99.90;;;;;;5010828;28;20385;-66
2022/11/22 07:27:46;;;;;;;2.95;1.60;;;5.50;99.90;;;;;;4987039;28;20489;-66
2022/11/22 07:30:12;;;;;;;0.10;0.10;;;5.60;99.90;;;;;;4996248;28;20053;-66
2022/11/22 07:32:37;;;;;;;0.10;0.10;;;5.60;99.90;;;;;;5010731;28;20046;-66
2022/11/22 07:35:03;;;;;;;0.10;0.10;;;5.60;99.90;;;;;;4992143;28;20536;-66
2022/11/22 07:37:32;;;;;;;0.20;0.20;;;5.50;99.90;;;;;;4987397;28;20053;-66
2022/11/22 07:39:58;;;;;;;0.10;0.10;;;5.50;99.90;;;;;;5009908;28;20038;-66
2022/11/22 07:42:23;;;;;;;1.77;1.67;;;5.60;99.90;;;;;;5025832;28;20049;-66
2022/11/22 07:44:49;;;;;;;0.85;0.85;;;5.50;99.90;;;;;;5008540;28;20073;-66
2022/11/22 07:47:14;;;;;;;0.45;0.45;;;5.60;99.90;;;;;;5010629;28;20064;-66
2022/11/22 07:49:40;;;;;;;0.10;0.10;;;5.50;99.90;;;;;;5009851;28;20513;-66
2022/11/22 07:52:06;;;;;;;0.17;0.17;;;5.70;99.90;;;;;;5012481;28;20112;-66
2022/11/22 07:54:31;;;;;;;0.10;0.10;;;5.60;99.90;;;;;;5013118;28;20042;-66
2022/11/22 07:56:57;;;;;;;0.52;0.52;;;5.70;99.90;;;;;;5011609;28;20148;-66
2022/11/22 07:59:22;;;;;;;0.20;0.20;;;5.70;99.90;;;;;;5012709;28;20121;-66
2022/11/22 08:01:48;;;;;;;0.10;0.10;;;5.70;99.90;;;;;;4993079;28;20042;-66
2022/11/22 08:04:14;;;;;;;0.20;0.20;;;5.80;99.90;;;;;;4993955;28;20120;-66
2022/11/22 08:06:39;;;;;;;0.10;0.10;;;5.80;99.90;;;;;;5001828;28;20050;-66
2022/11/22 08:09:05;;;;;;;0.10;0.10;;;5.90;99.90;;;;;;5007511;28;20042;-66
2022/11/22 08:11:30;;;;;;;0.55;0.55;;;5.80;99.90;;;;;;5004400;28;20076;-66
2022/11/22 08:13:56;;;;;;;0.20;0.20;;;6.00;99.90;;;;;;5006045;28;20089;-66
2022/11/22 08:16:22;;;;;;;31.65;1.23;;;6.00;99.90;;;;;;5002846;28;20142;-67
2022/11/22 08:18:49;;;;;;;0.90;0.90;;;6.00;99.90;;;;;;5004302;28;20465;-67
2022/11/22 08:21:16;;;;;;;0.17;0.17;;;6.00;99.90;;;;;;5000195;28;20039;-67
2022/11/22 08:23:43;;;;;;;0.30;0.30;;;6.10;99.90;;;;;;4991942;28;20038;-67
2022/11/22 08:26:11;;;;;;;0.10;0.10;;;6.00;99.90;;;;;;5007151;28;20073;-66
2022/11/22 08:28:37;;;;;;;0.10;0.10;;;6.00;99.90;;;;;;5002870;28;20043;-66
2022/11/22 08:31:14;;;;;;;0.35;0.35;;;6.00;99.90;;;;;;5000284;28;20556;-66
2022/11/22 08:33:41;;;;;;;0.10;0.10;;;6.00;99.90;;;;;;4998835;28;20498;-66
2022/11/22 08:36:06;;;;;;;0.10;0.10;;;6.00;99.90;;;;;;5010934;28;20438;-66
2022/11/22 08:38:32;;;;;;;0.10;0.10;;;6.00;99.90;;;;;;5011484;28;20098;-66
2022/11/22 08:40:58;;;;;;;0.20;0.20;;;6.00;99.90;;;;;;5001745;28;20466;-66
2022/11/22 08:43:24;;;;;;;0.50;0.50;;;6.00;99.90;;;;;;5002718;28;20044;-66
2022/11/22 08:45:55;;;;;;;0.20;0.20;;;6.00;99.90;;;;;;5009720;28;20046;-66
2022/11/22 08:48:21;;;;;;;0.10;0.10;;;6.00;99.90;;;;;;5013424;28;20073;-66
2022/11/22 08:50:51;;;;;;;0.10;0.10;;;5.90;99.90;;;;;;5004002;28;20046;-66
2022/11/22 08:53:17;;;;;;;1.20;1.20;;;5.90;99.90;;;;;;4998758;28;20450;-66
2022/11/22 08:55:42;;;;;;;0.57;0.57;;;6.00;99.90;;;;;;4985898;28;20081;-66
2022/11/22 08:58:08;;;;;;;0.32;0.32;;;6.00;99.90;;;;;;5011991;28;20037;-67
2022/11/22 09:00:33;;;;;;;0.10;0.10;;;6.00;99.90;;;;;;5015472;28;20049;-66
2022/11/22 09:02:59;;;;;;;0.10;0.10;;;5.90;99.90;;;;;;5010293;28;20037;-66
2022/11/22 09:05:24;;;;;;;0.10;0.10;;;6.00;99.90;;;;;;5009142;28;20041;-66
2022/11/22 09:07:50;;;;;;;0.50;0.50;;;5.90;99.90;;;;;;4994120;28;20073;-66
2022/11/22 09:10:16;;;;;;;0.30;0.30;;;6.00;99.90;;;;;;5013913;28;20050;-67
2022/11/22 09:12:45;;;;;;;0.10;0.10;;;6.00;99.90;;;;;;4995337;28;20446;-66
2022/11/22 09:15:11;;;;;;;0.20;0.20;;;6.00;99.90;;;;;;5009642;28;20049;-66
2022/11/22 09:17:37;;;;;;;2.38;1.08;;;6.10;99.90;;;;;;4994893;28;20038;-67
2022/11/22 09:20:03;;;;;;;0.10;0.10;;;6.10;99.90;;;;;;5012428;28;20484;-66
2022/11/22 09:22:30;;;;;;;0.75;0.75;;;6.00;99.90;;;;;;4997977;28;20038;-66
2022/11/22 09:24:55;;;;;;;0.10;0.10;;;6.10;99.90;;;;;;5018000;28;20037;-67
2022/11/22 09:27:22;;;;;;;1.55;1.45;;;6.10;99.90;;;;;;5011970;28;20052;-67
2022/11/22 09:29:47;;;;;;;0.10;0.10;;;6.20;99.90;;;;;;5011180;28;20539;-66
2022/11/22 09:32:13;;;;;;;0.10;0.10;;;6.20;99.90;;;;;;5013320;28;20049;-66
2022/11/22 09:34:38;;;;;;;0.40;0.40;;;6.10;99.90;;;;;;5014780;28;20088;-67
2022/11/22 09:37:04;;;;;;;0.40;0.40;;;6.10;99.90;;;;;;5007032;28;20117;-67
2022/11/22 09:39:30;;;;;;;0.90;0.90;;;6.10;99.90;;;;;;4998715;28;20145;-66
2022/11/22 09:42:14;;;;;;;0.10;0.10;;;6.10;99.90;;;;;;5010612;28;20141;-66
2022/11/22 09:44:49;;;;;;;0.25;0.25;;;6.20;99.90;;;;;;5018059;28;20057;-66
2022/11/22 09:47:33;;;;;;;0.10;0.10;;;6.10;99.90;;;;;;4989260;28;20046;-66
2022/11/22 09:50:23;;;;;;;0.10;0.10;;;6.20;99.90;;;;;;5010019;28;20046;-67
2022/11/22 09:52:54;;;;;;;0.20;0.20;;;6.20;99.90;;;;;;5001745;28;20540;-67
2022/11/22 09:55:36;;;;;;;0.13;0.13;;;6.20;99.90;;;;;;5001457;28;20037;-66
2022/11/22 09:58:22;;;;;;;0.20;0.20;;;6.20;99.90;;;;;;5011841;28;20553;-66
2022/11/22 10:00:48;;;;;;;0.75;0.75;;;6.20;99.90;;;;;;5011289;28;20104;-66
2022/11/22 10:03:26;;;;;;;1.85;1.27;;;6.30;99.90;;;;;;5010548;28;20042;-66
2022/11/22 10:05:56;;;;;;;0.15;0.15;;;6.40;99.90;;;;;;5000875;28;20105;-67
2022/11/22 10:08:39;;;;;;;0.10;0.10;;;6.40;99.90;;;;;;5011381;28;20038;-67
2022/11/22 10:11:29;;;;;;;0.10;0.10;;;6.40;99.90;;;;;;5006098;28;20486;-67
2022/11/22 10:14:08;;;;;;;0.20;0.20;;;6.40;99.90;;;;;;4992511;28;20046;-67
2022/11/22 10:16:39;;;;;;;0.10;0.10;;;6.50;99.90;;;;;;5018626;28;20050;-67
2022/11/22 10:19:14;;;;;;;0.10;0.10;;;6.50;99.90;;;;;;4991054;28;20125;-67
2022/11/22 10:21:41;;;;;;;0.30;0.30;;;6.50;99.90;;;;;;5009757;28;20081;-67
2022/11/22 10:24:14;;;;;;;0.10;0.10;;;6.50;99.90;;;;;;4999408;28;20376;-67
2022/11/22 10:26:40;;;;;;;;;;;6.50;99.90;;;;;;5000386;28;20038;-67
2022/11/22 10:29:31;;;;;;;0.75;0.75;;;6.50;99.90;;;;;;5007072;28;20145;-67
2022/11/22 10:32:21;;;;;;;0.10;0.10;;;6.60;99.90;;;;;;4998163;28;20184;-67
2022/11/22 10:35:13;;;;;;;0.60;0.60;;;6.60;99.90;;;;;;4990236;28;20532;-67
2022/11/22 10:37:47;;;;;;;0.52;0.52;;;6.60;99.90;;;;;;5008200;28;20130;-66
2022/11/22 10:40:36;;;;;;;0.10;0.10;;;6.70;99.90;;;;;;4990877;28;20050;-66
2022/11/22 10:43:20;;;;;;;0.10;0.10;;;6.70;99.90;;;;;;5006997;28;20143;-66
2022/11/22 10:45:48;;;;;;;0.10;0.10;;;6.70;99.90;;;;;;5007615;28;20041;-67
2022/11/22 10:48:36;;;;;;;9.65;1.23;;;6.70;99.90;;;;;;5009298;28;20618;-67
2022/11/22 10:51:25;;;;;;;0.10;0.10;;;6.80;99.90;;;;;;5002684;28;20046;-66
2022/11/22 10:54:08;;;;;;;0.30;0.30;;;6.70;99.90;;;;;;4985564;28;20057;-67
2022/11/22 10:56:49;;;;;;;0.10;0.10;;;6.80;99.90;;;;;;5003958;28;20164;-66
2022/11/22 10:59:44;;;;;;;0.70;0.63;;;6.70;99.90;;;;;;5009056;28;20405;-66
2022/11/22 11:02:23;;;;;;;0.10;0.10;;;6.70;99.90;;;;;;4996275;28;20048;-67
2022/11/22 11:04:51;;;;;;;0.17;0.17;;;6.70;99.90;;;;;;4986011;28;20046;-67
2022/11/22 11:07:22;;;;;;;0.10;0.10;;;6.60;99.90;;;;;;5010079;28;20060;-67
2022/11/22 11:09:47;;;;;;;0.73;0.73;;;6.70;99.90;;;;;;4999704;28;20103;-67
2022/11/22 11:12:25;;;;;;;0.10;0.10;;;6.70;99.90;;;;;;4998290;28;20489;-68
2022/11/22 11:15:03;;;;;;;0.10;0.10;;;6.70;99.90;;;;;;5008909;28;20080;-67
2022/11/22 11:17:36;;;;;;;0.10;0.10;;;6.70;99.90;;;;;;5009397;28;20042;-68
2022/11/22 11:20:17;;;;;;;9.25;2.33;;;6.80;99.90;;;;;;5000058;28;20045;-68
2022/11/22 11:22:43;;;;;;;0.10;0.10;;;6.80;99.90;;;;;;5006678;28;20500;-68
2022/11/22 11:25:29;;;;;;;0.75;0.75;;;6.80;99.90;;;;;;5014536;28;20084;-67
2022/11/22 11:27:58;;;;;;;0.10;0.10;;;6.80;99.90;;;;;;4990925;28;20616;-67
2022/11/22 11:30:23;;;;;;;0.73;0.73;;;6.80;99.90;;;;;;5011623;28;20049;-67
2022/11/22 11:32:55;;;;;;;0.90;0.70;;;6.90;99.90;;;;;;5013814;28;20095;-67
2022/11/22 11:35:26;;;;;;;1.35;1.27;;;6.90;99.90;;;;;;5006503;28;20387;-67
2022/11/22 11:37:51;;;;;;;0.10;0.10;;;7.00;99.90;;;;;;5002043;28;20048;-67
2022/11/22 11:40:30;;;;;;;0.10;0.10;;;7.00;99.90;;;;;;5008729;28;20046;-67
2022/11/22 11:43:19;;;;;;;0.10;0.10;;;7.00;99.90;;;;;;5001373;28;20457;-67
2022/11/22 11:45:45;;;;;;;0.10;0.10;;;7.00;99.90;;;;;;5007598;28;20117;-67
2022/11/22 11:48:37;;;;;;;0.10;0.10;;;7.10;99.90;;;;;;5002942;28;20196;-67
2022/11/22 11:51:06;;;;;;;0.10;0.10;;;7.10;99.90;;;;;;5000240;28;20564;-67
2022/11/22 11:53:32;;;;;;;0.20;0.20;;;7.10;99.90;;;;;;4997043;28;20470;-67
2022/11/22 11:56:25;;;;;;;0.10;0.10;;;7.20;99.90;;;;;;4998088;28;20054;-67
2022/11/22 11:58:53;;;;;;;0.00;0.00;;;7.20;99.90;;;;;;4984843;28;20057;-67
2022/11/22 12:01:19;;;;;;;0.40;0.40;;;7.20;99.90;;;;;;5000424;28;20050;-67
2022/11/22 12:04:01;;;;;;;0.10;0.10;;;7.30;99.90;;;;;;5002691;28;20757;-67
2022/11/22 12:06:29;;;;;;;0.10;0.10;;;7.30;99.90;;;;;;5004227;28;20135;-67
2022/11/22 12:08:56;;;;;;;0.00;0.00;;;7.30;99.90;;;;;;4980532;28;20042;-67
2022/11/22 12:11:37;;;;;;;0.10;0.10;;;7.40;99.90;;;;;;4988879;28;20089;-67
2022/11/22 12:14:06;;;;;;;0.10;0.10;;;7.40;99.90;;;;;;5010792;28;20096;-67
2022/11/22 12:16:40;;;;;;;0.10;0.10;;;7.40;99.90;;;;;;5005597;28;20397;-67
2022/11/22 12:19:43;;;;;;;0.10;0.10;;;7.50;99.90;;;;;;5004392;28;20442;-68
2022/11/22 12:22:23;;;;;;;0.10;0.10;;;7.40;99.90;;;;;;4972808;28;20054;-67
2022/11/22 12:25:05;;;;;;;0.10;0.10;;;7.50;99.90;;;;;;4994307;28;20038;-67
2022/11/22 12:27:30;;;;;;;0.17;0.17;;;7.50;99.90;;;;;;4983150;28;20042;-67
2022/11/22 12:29:57;;;;;;;0.10;0.10;;;7.60;99.90;;;;;;4999058;28;20478;-67
2022/11/22 12:32:40;;;;;;;0.45;0.45;;;7.60;99.90;;;;;;5009319;28;20060;-67
2022/11/22 12:35:17;;;;;;;0.10;0.10;;;7.50;99.90;;;;;;5005963;28;20058;-67
2022/11/22 12:37:49;;;;;;;0.88;0.88;;;7.60;99.90;;;;;;5010356;28;20053;-67
2022/11/22 12:40:23;;;;;;;0.30;0.30;;;7.60;99.90;;;;;;5012155;28;20485;-67
2022/11/22 12:42:54;;;;;;;0.10;0.10;;;7.60;99.90;;;;;;5004370;28;20046;-67
2022/11/22 12:45:33;;;;;;;2.38;1.85;;;7.60;99.90;;;;;;5006391;28;20111;-67
2022/11/22 12:48:06;;;;;;;0.05;0.05;;;7.60;99.90;;;;;;4994795;28;20046;-68
2022/11/22 12:50:46;;;;;;;0.10;0.10;;;7.70;99.90;;;;;;5011852;28;20074;-68
2022/11/22 12:53:15;;;;;;;0.10;0.10;;;7.70;99.90;;;;;;5012186;28;20050;-68
2022/11/22 12:55:52;;;;;;;0.10;0.10;;;7.70;99.90;;;;;;5002568;28;20042;-68
2022/11/22 12:58:32;;;;;;;0.20;0.20;;;7.80;99.90;;;;;;4997336;28;20068;-68
2022/11/22 13:01:21;;;;;;;0.10;0.10;;;7.70;99.90;;;;;;5011137;28;20046;-68
2022/11/22 13:03:49;;;;;;;0.30;0.30;;;7.80;99.90;;;;;;5011447;28;20052;-68
2022/11/22 13:06:21;;;;;;;7.68;2.45;;;7.80;99.90;;;;;;5000367;28;20433;-68
2022/11/22 13:09:03;;;;;;;0.10;0.10;;;7.80;99.90;;;;;;5007354;28;20042;-68
2022/11/22 13:12:07;;;;;;;0.10;0.10;;;7.80;99.90;;;;;;4999738;28;20052;-68
2022/11/22 13:14:43;;;;;;;0.10;0.10;;;7.90;99.90;;;;;;4985219;28;20041;-68
2022/11/22 13:17:11;;;;;;;0.10;0.10;;;7.90;99.90;;;;;;5001015;28;20513;-68
2022/11/22 13:19:43;;;;;;;0.73;0.73;;;7.90;99.90;;;;;;5006177;28;20042;-68
2022/11/22 13:22:31;;;;;;;0.22;0.22;;;8.00;99.90;;;;;;4998482;28;20398;-68
2022/11/22 13:25:42;;;;;;;0.10;0.10;;;7.80;99.90;;;;;;4985170;28;20060;-68